sensor_id;sensor_type;location;lat;lon;timestamp;P1;durP1;ratioP1;P2;durP2;ratioP2
24521;SDS011;12680;57.804;12.190;2023-09-19T00:00:38;20.98;;;14.80;;
24521;SDS011;12680;57.804;12.190;2023-09-19T00:03:07;24.33;;;14.20;;
24521;SDS011;12680;57.804;12.190;2023-09-19T00:05:36;22.45;;;14.50;;
24521;SDS011;12680;57.804;12.190;2023-09-19T00:08:05;22.95;;;14.50;;
24521;SDS011;12680;57.804;12.190;2023-09-19T00:10:32;20.42;;;15.07;;
24521;SDS011;12680;57.804;12.190;2023-09-19T00:13:03;24.75;;;16.55;;
24521;SDS011;12680;57.804;12.190;2023-09-19T00:15:38;24.00;;;14.85;;
24521;SDS011;12680;57.804;12.190;2023-09-19T00:18:07;22.80;;;14.32;;
24521;SDS011;12680;57.804;12.190;2023-09-19T00:20:35;24.27;;;14.82;;
24521;SDS011;12680;57.804;12.190;2023-09-19T00:23:03;20.15;;;14.57;;
24521;SDS011;12680;57.804;12.190;2023-09-19T00:25:36;23.23;;;15.27;;
24521;SDS011;12680;57.804;12.190;2023-09-19T00:28:04;22.33;;;15.60;;
24521;SDS011;12680;57.804;12.190;2023-09-19T00:30:33;23.35;;;15.57;;
24521;SDS011;12680;57.804;12.190;2023-09-19T00:33:00;23.90;;;14.18;;
24521;SDS011;12680;57.804;12.190;2023-09-19T00:35:31;21.52;;;15.27;;
24521;SDS011;12680;57.804;12.190;2023-09-19T00:37:59;23.17;;;15.02;;
24521;SDS011;12680;57.804;12.190;2023-09-19T00:40:26;22.55;;;14.82;;
24521;SDS011;12680;57.804;12.190;2023-09-19T00:42:56;22.67;;;15.25;;
24521;SDS011;12680;57.804;12.190;2023-09-19T00:45:26;22.77;;;15.60;;
24521;SDS011;12680;57.804;12.190;2023-09-19T00:47:55;25.73;;;15.38;;
24521;SDS011;12680;57.804;12.190;2023-09-19T00:50:24;27.42;;;15.45;;
24521;SDS011;12680;57.804;12.190;2023-09-19T00:52:54;21.48;;;14.57;;
24521;SDS011;12680;57.804;12.190;2023-09-19T00:55:24;20.00;;;13.88;;
24521;SDS011;12680;57.804;12.190;2023-09-19T00:57:52;20.83;;;15.10;;
24521;SDS011;12680;57.804;12.190;2023-09-19T01:00:21;17.88;;;14.07;;
24521;SDS011;12680;57.804;12.190;2023-09-19T01:02:50;21.15;;;14.02;;
24521;SDS011;12680;57.804;12.190;2023-09-19T01:05:17;25.98;;;14.57;;
24521;SDS011;12680;57.804;12.190;2023-09-19T01:07:45;26.75;;;14.77;;
24521;SDS011;12680;57.804;12.190;2023-09-19T01:10:15;21.20;;;14.50;;
24521;SDS011;12680;57.804;12.190;2023-09-19T01:18:19;19.25;;;13.38;;
24521;SDS011;12680;57.804;12.190;2023-09-19T01:32:06;20.40;;;13.18;;
24521;SDS011;12680;57.804;12.190;2023-09-19T01:34:55;19.00;;;14.07;;
24521;SDS011;12680;57.804;12.190;2023-09-19T01:37:30;22.95;;;12.68;;
24521;SDS011;12680;57.804;12.190;2023-09-19T01:40:02;20.67;;;13.48;;
24521;SDS011;12680;57.804;12.190;2023-09-19T01:42:38;17.98;;;12.70;;
24521;SDS011;12680;57.804;12.190;2023-09-19T01:45:12;14.10;;;11.32;;
24521;SDS011;12680;57.804;12.190;2023-09-19T01:47:49;18.67;;;12.15;;
24521;SDS011;12680;57.804;12.190;2023-09-19T01:50:32;18.88;;;11.88;;
24521;SDS011;12680;57.804;12.190;2023-09-19T01:53:10;18.35;;;10.80;;
24521;SDS011;12680;57.804;12.190;2023-09-19T01:55:51;19.05;;;11.40;;
24521;SDS011;12680;57.804;12.190;2023-09-19T02:00:49;17.90;;;11.85;;
24521;SDS011;12680;57.804;12.190;2023-09-19T02:03:18;17.60;;;11.15;;
24521;SDS011;12680;57.804;12.190;2023-09-19T02:05:52;18.35;;;12.10;;
24521;SDS011;12680;57.804;12.190;2023-09-19T02:10:51;14.45;;;10.52;;
24521;SDS011;12680;57.804;12.190;2023-09-19T02:13:19;14.25;;;11.02;;
24521;SDS011;12680;57.804;12.190;2023-09-19T02:15:48;19.08;;;11.45;;
24521;SDS011;12680;57.804;12.190;2023-09-19T02:18:15;16.92;;;12.00;;
24521;SDS011;12680;57.804;12.190;2023-09-19T02:20:42;17.83;;;12.13;;
24521;SDS011;12680;57.804;12.190;2023-09-19T02:23:09;17.55;;;12.43;;
24521;SDS011;12680;57.804;12.190;2023-09-19T02:25:37;18.80;;;12.68;;
24521;SDS011;12680;57.804;12.190;2023-09-19T02:28:05;19.20;;;12.73;;
24521;SDS011;12680;57.804;12.190;2023-09-19T02:30:32;18.20;;;13.30;;
24521;SDS011;12680;57.804;12.190;2023-09-19T02:32:59;19.17;;;13.07;;
24521;SDS011;12680;57.804;12.190;2023-09-19T02:35:28;15.05;;;12.70;;
24521;SDS011;12680;57.804;12.190;2023-09-19T02:37:59;18.73;;;14.07;;
24521;SDS011;12680;57.804;12.190;2023-09-19T02:40:26;18.58;;;13.40;;
24521;SDS011;12680;57.804;12.190;2023-09-19T02:42:54;17.30;;;13.25;;
24521;SDS011;12680;57.804;12.190;2023-09-19T02:45:22;17.13;;;12.95;;
24521;SDS011;12680;57.804;12.190;2023-09-19T02:47:49;19.05;;;13.18;;
24521;SDS011;12680;57.804;12.190;2023-09-19T02:50:16;20.92;;;13.90;;
24521;SDS011;12680;57.804;12.190;2023-09-19T02:52:44;25.33;;;13.57;;
24521;SDS011;12680;57.804;12.190;2023-09-19T02:57:47;18.45;;;12.52;;
24521;SDS011;12680;57.804;12.190;2023-09-19T03:00:18;23.17;;;12.82;;
24521;SDS011;12680;57.804;12.190;2023-09-19T03:02:55;17.13;;;12.45;;
24521;SDS011;12680;57.804;12.190;2023-09-19T03:05:23;16.70;;;12.25;;
24521;SDS011;12680;57.804;12.190;2023-09-19T03:07:51;18.92;;;10.77;;
24521;SDS011;12680;57.804;12.190;2023-09-19T03:10:18;16.80;;;9.10;;
24521;SDS011;12680;57.804;12.190;2023-09-19T03:12:46;16.92;;;8.60;;
24521;SDS011;12680;57.804;12.190;2023-09-19T03:15:14;13.98;;;8.77;;
24521;SDS011;12680;57.804;12.190;2023-09-19T03:17:45;14.05;;;8.15;;
24521;SDS011;12680;57.804;12.190;2023-09-19T03:20:14;11.40;;;7.72;;
24521;SDS011;12680;57.804;12.190;2023-09-19T03:22:44;11.48;;;7.75;;
24521;SDS011;12680;57.804;12.190;2023-09-19T03:25:12;11.10;;;7.10;;
24521;SDS011;12680;57.804;12.190;2023-09-19T03:27:39;9.40;;;6.05;;
24521;SDS011;12680;57.804;12.190;2023-09-19T03:30:07;14.15;;;6.38;;
24521;SDS011;12680;57.804;12.190;2023-09-19T03:32:35;10.60;;;5.85;;
24521;SDS011;12680;57.804;12.190;2023-09-19T03:35:03;13.60;;;5.95;;
24521;SDS011;12680;57.804;12.190;2023-09-19T03:37:32;10.38;;;5.55;;
24521;SDS011;12680;57.804;12.190;2023-09-19T03:40:00;11.77;;;5.10;;
24521;SDS011;12680;57.804;12.190;2023-09-19T03:42:31;14.00;;;5.13;;
24521;SDS011;12680;57.804;12.190;2023-09-19T03:44:58;9.82;;;5.65;;
24521;SDS011;12680;57.804;12.190;2023-09-19T03:47:27;9.13;;;5.22;;
24521;SDS011;12680;57.804;12.190;2023-09-19T03:49:56;9.05;;;4.57;;
24521;SDS011;12680;57.804;12.190;2023-09-19T03:52:23;8.40;;;4.03;;
24521;SDS011;12680;57.804;12.190;2023-09-19T03:54:51;8.45;;;3.53;;
24521;SDS011;12680;57.804;12.190;2023-09-19T03:57:18;10.65;;;3.50;;
24521;SDS011;12680;57.804;12.190;2023-09-19T03:59:47;9.75;;;3.70;;
24521;SDS011;12680;57.804;12.190;2023-09-19T04:02:13;8.25;;;3.70;;
24521;SDS011;12680;57.804;12.190;2023-09-19T04:04:49;11.23;;;3.17;;
24521;SDS011;12680;57.804;12.190;2023-09-19T04:07:17;7.85;;;3.25;;
24521;SDS011;12680;57.804;12.190;2023-09-19T04:09:45;12.57;;;3.40;;
24521;SDS011;12680;57.804;12.190;2023-09-19T04:12:12;12.95;;;3.00;;
24521;SDS011;12680;57.804;12.190;2023-09-19T04:14:43;9.70;;;2.80;;
24521;SDS011;12680;57.804;12.190;2023-09-19T04:17:10;5.32;;;2.72;;
24521;SDS011;12680;57.804;12.190;2023-09-19T04:19:37;8.02;;;3.10;;
24521;SDS011;12680;57.804;12.190;2023-09-19T04:22:04;9.90;;;3.42;;
24521;SDS011;12680;57.804;12.190;2023-09-19T04:24:31;7.78;;;3.08;;
24521;SDS011;12680;57.804;12.190;2023-09-19T04:26:59;9.07;;;2.88;;
24521;SDS011;12680;57.804;12.190;2023-09-19T04:29:26;9.23;;;2.97;;
24521;SDS011;12680;57.804;12.190;2023-09-19T04:31:55;7.78;;;3.00;;
24521;SDS011;12680;57.804;12.190;2023-09-19T04:34:23;7.10;;;2.70;;
24521;SDS011;12680;57.804;12.190;2023-09-19T04:36:50;8.93;;;2.88;;
24521;SDS011;12680;57.804;12.190;2023-09-19T04:39:17;14.70;;;3.92;;
24521;SDS011;12680;57.804;12.190;2023-09-19T04:41:44;11.93;;;2.90;;
24521;SDS011;12680;57.804;12.190;2023-09-19T04:44:14;7.40;;;2.80;;
24521;SDS011;12680;57.804;12.190;2023-09-19T04:46:42;6.22;;;2.80;;
24521;SDS011;12680;57.804;12.190;2023-09-19T04:49:09;8.88;;;3.22;;
24521;SDS011;12680;57.804;12.190;2023-09-19T04:51:36;8.40;;;2.97;;
24521;SDS011;12680;57.804;12.190;2023-09-19T04:54:03;9.20;;;2.83;;
24521;SDS011;12680;57.804;12.190;2023-09-19T04:56:30;12.63;;;3.13;;
24521;SDS011;12680;57.804;12.190;2023-09-19T04:58:58;3.60;;;2.80;;
24521;SDS011;12680;57.804;12.190;2023-09-19T05:01:26;7.22;;;3.22;;
24521;SDS011;12680;57.804;12.190;2023-09-19T05:03:53;7.10;;;2.35;;
24521;SDS011;12680;57.804;12.190;2023-09-19T05:06:20;8.43;;;2.42;;
24521;SDS011;12680;57.804;12.190;2023-09-19T05:08:47;8.23;;;2.08;;
24521;SDS011;12680;57.804;12.190;2023-09-19T05:13:48;4.35;;;1.60;;
24521;SDS011;12680;57.804;12.190;2023-09-19T05:18:46;5.03;;;1.48;;
24521;SDS011;12680;57.804;12.190;2023-09-19T05:21:13;4.03;;;1.40;;
24521;SDS011;12680;57.804;12.190;2023-09-19T05:23:40;3.17;;;1.38;;
24521;SDS011;12680;57.804;12.190;2023-09-19T05:26:08;6.80;;;2.17;;
24521;SDS011;12680;57.804;12.190;2023-09-19T05:28:35;5.22;;;1.77;;
24521;SDS011;12680;57.804;12.190;2023-09-19T05:31:02;6.25;;;1.48;;
24521;SDS011;12680;57.804;12.190;2023-09-19T05:33:29;3.42;;;1.42;;
24521;SDS011;12680;57.804;12.190;2023-09-19T05:35:58;4.63;;;1.15;;
24521;SDS011;12680;57.804;12.190;2023-09-19T05:38:29;5.65;;;1.25;;
24521;SDS011;12680;57.804;12.190;2023-09-19T05:40:56;5.75;;;1.38;;
24521;SDS011;12680;57.804;12.190;2023-09-19T05:43:23;6.88;;;1.35;;
24521;SDS011;12680;57.804;12.190;2023-09-19T05:45:50;8.35;;;1.45;;
24521;SDS011;12680;57.804;12.190;2023-09-19T05:48:18;6.18;;;1.27;;
24521;SDS011;12680;57.804;12.190;2023-09-19T05:50:47;9.70;;;1.58;;
24521;SDS011;12680;57.804;12.190;2023-09-19T05:53:17;8.82;;;1.50;;
24521;SDS011;12680;57.804;12.190;2023-09-19T05:55:45;6.97;;;1.45;;
24521;SDS011;12680;57.804;12.190;2023-09-19T05:58:11;5.07;;;1.15;;
24521;SDS011;12680;57.804;12.190;2023-09-19T06:00:44;6.18;;;1.25;;
24521;SDS011;12680;57.804;12.190;2023-09-19T06:03:13;5.82;;;1.17;;
24521;SDS011;12680;57.804;12.190;2023-09-19T06:05:41;4.90;;;1.13;;
24521;SDS011;12680;57.804;12.190;2023-09-19T06:08:07;5.65;;;1.60;;
24521;SDS011;12680;57.804;12.190;2023-09-19T06:10:35;5.72;;;1.42;;
24521;SDS011;12680;57.804;12.190;2023-09-19T06:13:03;4.13;;;1.20;;
24521;SDS011;12680;57.804;12.190;2023-09-19T06:15:31;5.22;;;1.25;;
24521;SDS011;12680;57.804;12.190;2023-09-19T06:17:59;6.05;;;1.35;;
24521;SDS011;12680;57.804;12.190;2023-09-19T06:20:28;2.30;;;1.17;;
24521;SDS011;12680;57.804;12.190;2023-09-19T06:22:56;4.38;;;1.40;;
24521;SDS011;12680;57.804;12.190;2023-09-19T06:25:23;7.13;;;1.65;;
24521;SDS011;12680;57.804;12.190;2023-09-19T06:27:50;4.07;;;1.20;;
24521;SDS011;12680;57.804;12.190;2023-09-19T06:30:20;6.57;;;1.60;;
24521;SDS011;12680;57.804;12.190;2023-09-19T06:32:49;3.55;;;1.60;;
24521;SDS011;12680;57.804;12.190;2023-09-19T06:35:21;5.30;;;1.17;;
24521;SDS011;12680;57.804;12.190;2023-09-19T06:37:48;2.33;;;1.13;;
24521;SDS011;12680;57.804;12.190;2023-09-19T06:40:17;3.55;;;1.00;;
24521;SDS011;12680;57.804;12.190;2023-09-19T06:42:46;5.47;;;1.23;;
24521;SDS011;12680;57.804;12.190;2023-09-19T06:45:16;6.72;;;1.35;;
24521;SDS011;12680;57.804;12.190;2023-09-19T06:50:17;4.78;;;1.23;;
24521;SDS011;12680;57.804;12.190;2023-09-19T06:52:46;5.10;;;1.33;;
24521;SDS011;12680;57.804;12.190;2023-09-19T06:55:16;5.10;;;1.38;;
24521;SDS011;12680;57.804;12.190;2023-09-19T06:57:48;2.80;;;1.20;;
24521;SDS011;12680;57.804;12.190;2023-09-19T07:00:15;3.25;;;0.98;;
24521;SDS011;12680;57.804;12.190;2023-09-19T07:02:55;5.05;;;1.20;;
24521;SDS011;12680;57.804;12.190;2023-09-19T07:05:23;2.83;;;1.00;;
24521;SDS011;12680;57.804;12.190;2023-09-19T07:07:49;2.33;;;0.75;;
24521;SDS011;12680;57.804;12.190;2023-09-19T07:10:16;6.63;;;1.27;;
24521;SDS011;12680;57.804;12.190;2023-09-19T07:12:44;4.55;;;1.20;;
24521;SDS011;12680;57.804;12.190;2023-09-19T07:15:11;3.95;;;1.25;;
24521;SDS011;12680;57.804;12.190;2023-09-19T07:17:38;5.07;;;1.02;;
24521;SDS011;12680;57.804;12.190;2023-09-19T07:20:05;4.38;;;1.30;;
24521;SDS011;12680;57.804;12.190;2023-09-19T07:22:34;6.72;;;1.30;;
24521;SDS011;12680;57.804;12.190;2023-09-19T07:25:02;2.83;;;1.23;;
24521;SDS011;12680;57.804;12.190;2023-09-19T07:27:29;6.28;;;1.55;;
24521;SDS011;12680;57.804;12.190;2023-09-19T07:29:56;8.35;;;1.70;;
24521;SDS011;12680;57.804;12.190;2023-09-19T07:32:23;5.40;;;1.25;;
24521;SDS011;12680;57.804;12.190;2023-09-19T07:34:50;5.55;;;1.40;;
24521;SDS011;12680;57.804;12.190;2023-09-19T07:37:18;9.50;;;1.67;;
24521;SDS011;12680;57.804;12.190;2023-09-19T07:39:44;7.47;;;1.55;;
24521;SDS011;12680;57.804;12.190;2023-09-19T07:42:11;5.22;;;1.30;;
24521;SDS011;12680;57.804;12.190;2023-09-19T07:44:44;8.63;;;1.58;;
24521;SDS011;12680;57.804;12.190;2023-09-19T07:47:17;7.47;;;2.00;;
24521;SDS011;12680;57.804;12.190;2023-09-19T07:49:46;5.45;;;1.77;;
24521;SDS011;12680;57.804;12.190;2023-09-19T07:52:14;4.55;;;1.75;;
24521;SDS011;12680;57.804;12.190;2023-09-19T07:54:42;9.90;;;2.10;;
24521;SDS011;12680;57.804;12.190;2023-09-19T07:57:10;8.32;;;2.67;;
24521;SDS011;12680;57.804;12.190;2023-09-19T07:59:37;8.80;;;1.80;;
24521;SDS011;12680;57.804;12.190;2023-09-19T08:02:07;8.50;;;1.60;;
24521;SDS011;12680;57.804;12.190;2023-09-19T08:04:36;6.60;;;1.52;;
24521;SDS011;12680;57.804;12.190;2023-09-19T08:07:03;7.03;;;1.88;;
24521;SDS011;12680;57.804;12.190;2023-09-19T08:09:31;3.65;;;1.05;;
24521;SDS011;12680;57.804;12.190;2023-09-19T08:11:59;10.00;;;1.88;;
24521;SDS011;12680;57.804;12.190;2023-09-19T08:14:29;4.82;;;1.77;;
24521;SDS011;12680;57.804;12.190;2023-09-19T08:16:57;4.90;;;2.10;;
24521;SDS011;12680;57.804;12.190;2023-09-19T08:19:25;2.47;;;1.38;;
24521;SDS011;12680;57.804;12.190;2023-09-19T08:21:55;8.68;;;2.05;;
24521;SDS011;12680;57.804;12.190;2023-09-19T08:24:28;8.48;;;1.60;;
24521;SDS011;12680;57.804;12.190;2023-09-19T08:26:56;8.38;;;1.98;;
24521;SDS011;12680;57.804;12.190;2023-09-19T08:29:24;6.65;;;1.60;;
24521;SDS011;12680;57.804;12.190;2023-09-19T08:31:58;8.75;;;1.90;;
24521;SDS011;12680;57.804;12.190;2023-09-19T08:34:26;6.03;;;1.50;;
24521;SDS011;12680;57.804;12.190;2023-09-19T08:36:53;7.70;;;1.80;;
24521;SDS011;12680;57.804;12.190;2023-09-19T08:39:23;6.70;;;2.42;;
24521;SDS011;12680;57.804;12.190;2023-09-19T08:41:59;8.65;;;1.80;;
24521;SDS011;12680;57.804;12.190;2023-09-19T08:44:27;8.05;;;1.90;;
24521;SDS011;12680;57.804;12.190;2023-09-19T08:47:06;11.07;;;2.17;;
24521;SDS011;12680;57.804;12.190;2023-09-19T08:49:52;8.38;;;2.00;;
24521;SDS011;12680;57.804;12.190;2023-09-19T08:52:47;6.10;;;2.05;;
24521;SDS011;12680;57.804;12.190;2023-09-19T08:55:17;6.82;;;1.73;;
24521;SDS011;12680;57.804;12.190;2023-09-19T08:57:52;4.20;;;2.10;;
24521;SDS011;12680;57.804;12.190;2023-09-19T09:00:25;5.72;;;1.75;;
24521;SDS011;12680;57.804;12.190;2023-09-19T09:02:57;10.13;;;1.80;;
24521;SDS011;12680;57.804;12.190;2023-09-19T09:05:25;11.35;;;2.70;;
24521;SDS011;12680;57.804;12.190;2023-09-19T09:07:53;4.47;;;1.50;;
24521;SDS011;12680;57.804;12.190;2023-09-19T09:10:22;8.48;;;2.08;;
24521;SDS011;12680;57.804;12.190;2023-09-19T09:12:53;7.05;;;1.42;;
24521;SDS011;12680;57.804;12.190;2023-09-19T09:15:24;10.77;;;1.95;;
24521;SDS011;12680;57.804;12.190;2023-09-19T09:17:51;5.72;;;1.42;;
24521;SDS011;12680;57.804;12.190;2023-09-19T09:20:22;7.55;;;2.45;;
24521;SDS011;12680;57.804;12.190;2023-09-19T09:22:52;3.00;;;1.30;;
24521;SDS011;12680;57.804;12.190;2023-09-19T09:25:21;7.38;;;1.67;;
24521;SDS011;12680;57.804;12.190;2023-09-19T09:28:00;5.75;;;1.40;;
24521;SDS011;12680;57.804;12.190;2023-09-19T09:30:34;8.13;;;1.67;;
24521;SDS011;12680;57.804;12.190;2023-09-19T09:33:09;6.43;;;1.20;;
24521;SDS011;12680;57.804;12.190;2023-09-19T09:35:54;4.43;;;1.30;;
24521;SDS011;12680;57.804;12.190;2023-09-19T09:38:24;4.03;;;0.93;;
24521;SDS011;12680;57.804;12.190;2023-09-19T09:40:59;2.85;;;1.20;;
24521;SDS011;12680;57.804;12.190;2023-09-19T09:43:34;5.38;;;1.20;;
24521;SDS011;12680;57.804;12.190;2023-09-19T09:46:23;7.10;;;1.40;;
24521;SDS011;12680;57.804;12.190;2023-09-19T09:49:01;2.10;;;1.02;;
24521;SDS011;12680;57.804;12.190;2023-09-19T09:51:49;5.40;;;1.25;;
24521;SDS011;12680;57.804;12.190;2023-09-19T09:54:29;3.00;;;1.00;;
24521;SDS011;12680;57.804;12.190;2023-09-19T09:57:04;2.97;;;1.20;;
24521;SDS011;12680;57.804;12.190;2023-09-19T09:59:53;6.23;;;1.23;;
24521;SDS011;12680;57.804;12.190;2023-09-19T10:04:56;2.78;;;0.80;;
24521;SDS011;12680;57.804;12.190;2023-09-19T10:07:36;3.20;;;1.15;;
24521;SDS011;12680;57.804;12.190;2023-09-19T10:10:10;4.40;;;1.30;;
24521;SDS011;12680;57.804;12.190;2023-09-19T10:12:46;1.88;;;0.75;;
24521;SDS011;12680;57.804;12.190;2023-09-19T10:15:15;2.35;;;0.70;;
24521;SDS011;12680;57.804;12.190;2023-09-19T10:17:50;1.95;;;0.80;;
24521;SDS011;12680;57.804;12.190;2023-09-19T10:20:21;2.33;;;0.88;;
24521;SDS011;12680;57.804;12.190;2023-09-19T10:22:50;4.10;;;1.20;;
24521;SDS011;12680;57.804;12.190;2023-09-19T10:25:27;4.47;;;1.13;;
24521;SDS011;12680;57.804;12.190;2023-09-19T10:27:57;5.72;;;1.33;;
24521;SDS011;12680;57.804;12.190;2023-09-19T10:30:31;8.18;;;0.93;;
24521;SDS011;12680;57.804;12.190;2023-09-19T10:33:03;3.90;;;1.20;;
24521;SDS011;12680;57.804;12.190;2023-09-19T10:35:32;2.95;;;1.13;;
24521;SDS011;12680;57.804;12.190;2023-09-19T10:38:03;2.45;;;0.90;;
24521;SDS011;12680;57.804;12.190;2023-09-19T10:40:32;2.88;;;1.00;;
24521;SDS011;12680;57.804;12.190;2023-09-19T10:43:03;4.53;;;1.10;;
24521;SDS011;12680;57.804;12.190;2023-09-19T10:45:32;4.30;;;0.90;;
24521;SDS011;12680;57.804;12.190;2023-09-19T10:48:01;2.20;;;0.60;;
24521;SDS011;12680;57.804;12.190;2023-09-19T10:50:48;3.58;;;1.08;;
24521;SDS011;12680;57.804;12.190;2023-09-19T10:53:17;2.83;;;0.95;;
24521;SDS011;12680;57.804;12.190;2023-09-19T10:55:59;4.50;;;0.88;;
24521;SDS011;12680;57.804;12.190;2023-09-19T10:58:36;5.70;;;1.10;;
24521;SDS011;12680;57.804;12.190;2023-09-19T11:01:06;5.03;;;1.50;;
24521;SDS011;12680;57.804;12.190;2023-09-19T11:03:38;1.70;;;0.77;;
24521;SDS011;12680;57.804;12.190;2023-09-19T11:06:12;4.20;;;0.95;;
24521;SDS011;12680;57.804;12.190;2023-09-19T11:08:52;7.13;;;1.20;;
24521;SDS011;12680;57.804;12.190;2023-09-19T11:11:47;3.70;;;1.40;;
24521;SDS011;12680;57.804;12.190;2023-09-19T11:30:49;8.77;;;1.55;;
24521;SDS011;12680;57.804;12.190;2023-09-19T11:43:47;9.63;;;1.33;;
24521;SDS011;12680;57.804;12.190;2023-09-19T11:46:14;3.70;;;1.20;;
24521;SDS011;12680;57.804;12.190;2023-09-19T11:48:43;4.68;;;1.02;;
24521;SDS011;12680;57.804;12.190;2023-09-19T11:51:15;9.10;;;1.10;;
24521;SDS011;12680;57.804;12.190;2023-09-19T11:53:48;2.85;;;0.80;;
24521;SDS011;12680;57.804;12.190;2023-09-19T11:56:17;3.85;;;1.00;;
24521;SDS011;12680;57.804;12.190;2023-09-19T11:58:46;2.53;;;1.00;;
24521;SDS011;12680;57.804;12.190;2023-09-19T12:01:21;4.90;;;1.00;;
24521;SDS011;12680;57.804;12.190;2023-09-19T12:03:54;5.32;;;0.93;;
24521;SDS011;12680;57.804;12.190;2023-09-19T12:06:28;5.67;;;1.13;;
24521;SDS011;12680;57.804;12.190;2023-09-19T12:08:56;2.90;;;1.33;;
24521;SDS011;12680;57.804;12.190;2023-09-19T12:11:29;5.65;;;1.40;;
24521;SDS011;12680;57.804;12.190;2023-09-19T12:14:00;4.65;;;0.90;;
24521;SDS011;12680;57.804;12.190;2023-09-19T12:16:28;4.75;;;0.77;;
24521;SDS011;12680;57.804;12.190;2023-09-19T12:19:17;2.25;;;0.63;;
24521;SDS011;12680;57.804;12.190;2023-09-19T12:21:55;7.47;;;1.23;;
24521;SDS011;12680;57.804;12.190;2023-09-19T12:24:27;7.50;;;1.35;;
24521;SDS011;12680;57.804;12.190;2023-09-19T12:27:00;3.17;;;1.05;;
24521;SDS011;12680;57.804;12.190;2023-09-19T12:29:32;4.72;;;1.15;;
24521;SDS011;12680;57.804;12.190;2023-09-19T12:32:14;4.50;;;1.02;;
24521;SDS011;12680;57.804;12.190;2023-09-19T12:34:50;4.85;;;1.15;;
24521;SDS011;12680;57.804;12.190;2023-09-19T12:37:20;4.13;;;1.00;;
24521;SDS011;12680;57.804;12.190;2023-09-19T12:39:48;7.90;;;1.40;;
24521;SDS011;12680;57.804;12.190;2023-09-19T12:42:19;4.07;;;1.08;;
24521;SDS011;12680;57.804;12.190;2023-09-19T12:44:49;6.63;;;1.00;;
24521;SDS011;12680;57.804;12.190;2023-09-19T12:47:23;3.10;;;0.85;;
24521;SDS011;12680;57.804;12.190;2023-09-19T12:52:51;9.38;;;1.42;;
24521;SDS011;12680;57.804;12.190;2023-09-19T12:55:23;3.45;;;1.63;;
24521;SDS011;12680;57.804;12.190;2023-09-19T13:00:22;5.10;;;1.20;;
24521;SDS011;12680;57.804;12.190;2023-09-19T13:05:49;5.68;;;1.30;;
24521;SDS011;12680;57.804;12.190;2023-09-19T13:08:20;3.17;;;1.17;;
24521;SDS011;12680;57.804;12.190;2023-09-19T13:11:09;2.03;;;0.88;;
24521;SDS011;12680;57.804;12.190;2023-09-19T13:13:42;5.32;;;1.35;;
24521;SDS011;12680;57.804;12.190;2023-09-19T13:16:16;9.00;;;1.80;;
24521;SDS011;12680;57.804;12.190;2023-09-19T13:18:52;6.82;;;1.48;;
24521;SDS011;12680;57.804;12.190;2023-09-19T13:21:27;5.28;;;1.15;;
24521;SDS011;12680;57.804;12.190;2023-09-19T13:26:52;6.35;;;1.20;;
24521;SDS011;12680;57.804;12.190;2023-09-19T13:29:18;6.00;;;1.65;;
24521;SDS011;12680;57.804;12.190;2023-09-19T13:31:46;6.55;;;1.33;;
24521;SDS011;12680;57.804;12.190;2023-09-19T13:34:14;8.82;;;1.30;;
24521;SDS011;12680;57.804;12.190;2023-09-19T13:36:43;3.38;;;1.00;;
24521;SDS011;12680;57.804;12.190;2023-09-19T13:39:10;7.15;;;1.45;;
24521;SDS011;12680;57.804;12.190;2023-09-19T13:41:42;5.43;;;1.67;;
24521;SDS011;12680;57.804;12.190;2023-09-19T13:44:14;9.43;;;1.45;;
24521;SDS011;12680;57.804;12.190;2023-09-19T13:46:41;5.18;;;1.17;;
24521;SDS011;12680;57.804;12.190;2023-09-19T13:51:39;4.03;;;1.20;;
24521;SDS011;12680;57.804;12.190;2023-09-19T13:54:09;6.15;;;1.30;;
24521;SDS011;12680;57.804;12.190;2023-09-19T13:56:38;4.00;;;1.00;;
24521;SDS011;12680;57.804;12.190;2023-09-19T13:59:06;4.07;;;1.25;;
24521;SDS011;12680;57.804;12.190;2023-09-19T14:01:33;5.30;;;1.08;;
24521;SDS011;12680;57.804;12.190;2023-09-19T14:04:00;2.33;;;0.88;;
24521;SDS011;12680;57.804;12.190;2023-09-19T14:06:27;4.57;;;1.08;;
24521;SDS011;12680;57.804;12.190;2023-09-19T14:08:54;3.38;;;1.00;;
24521;SDS011;12680;57.804;12.190;2023-09-19T14:11:21;7.82;;;1.25;;
24521;SDS011;12680;57.804;12.190;2023-09-19T14:13:48;7.05;;;1.52;;
24521;SDS011;12680;57.804;12.190;2023-09-19T14:16:16;4.80;;;1.17;;
24521;SDS011;12680;57.804;12.190;2023-09-19T14:18:44;6.68;;;1.20;;
24521;SDS011;12680;57.804;12.190;2023-09-19T14:21:12;8.57;;;1.20;;
24521;SDS011;12680;57.804;12.190;2023-09-19T14:23:40;2.72;;;0.98;;
24521;SDS011;12680;57.804;12.190;2023-09-19T14:26:11;1.92;;;0.85;;
24521;SDS011;12680;57.804;12.190;2023-09-19T14:28:38;4.18;;;1.38;;
24521;SDS011;12680;57.804;12.190;2023-09-19T14:31:06;4.55;;;0.93;;
24521;SDS011;12680;57.804;12.190;2023-09-19T14:33:34;4.35;;;1.20;;
24521;SDS011;12680;57.804;12.190;2023-09-19T14:36:03;3.63;;;1.30;;
24521;SDS011;12680;57.804;12.190;2023-09-19T14:38:33;4.40;;;1.52;;
24521;SDS011;12680;57.804;12.190;2023-09-19T14:41:02;6.07;;;1.13;;
24521;SDS011;12680;57.804;12.190;2023-09-19T14:43:31;3.78;;;0.93;;
24521;SDS011;12680;57.804;12.190;2023-09-19T14:46:05;6.03;;;1.20;;
24521;SDS011;12680;57.804;12.190;2023-09-19T14:48:37;6.82;;;2.17;;
24521;SDS011;12680;57.804;12.190;2023-09-19T14:51:05;5.43;;;1.42;;
24521;SDS011;12680;57.804;12.190;2023-09-19T14:53:33;2.97;;;1.15;;
24521;SDS011;12680;57.804;12.190;2023-09-19T14:56:00;5.85;;;1.40;;
24521;SDS011;12680;57.804;12.190;2023-09-19T14:58:30;7.90;;;1.25;;
24521;SDS011;12680;57.804;12.190;2023-09-19T15:01:07;4.93;;;1.50;;
24521;SDS011;12680;57.804;12.190;2023-09-19T15:03:36;3.55;;;0.98;;
24521;SDS011;12680;57.804;12.190;2023-09-19T15:06:09;5.97;;;1.33;;
24521;SDS011;12680;57.804;12.190;2023-09-19T15:08:46;6.40;;;1.35;;
24521;SDS011;12680;57.804;12.190;2023-09-19T15:11:14;4.53;;;1.15;;
24521;SDS011;12680;57.804;12.190;2023-09-19T15:13:47;2.72;;;1.10;;
24521;SDS011;12680;57.804;12.190;2023-09-19T15:16:15;7.95;;;1.50;;
24521;SDS011;12680;57.804;12.190;2023-09-19T15:18:42;3.22;;;1.27;;
24521;SDS011;12680;57.804;12.190;2023-09-19T15:21:11;5.47;;;1.30;;
24521;SDS011;12680;57.804;12.190;2023-09-19T15:23:38;6.88;;;1.25;;
24521;SDS011;12680;57.804;12.190;2023-09-19T15:26:07;9.05;;;1.42;;
24521;SDS011;12680;57.804;12.190;2023-09-19T15:28:35;5.53;;;1.60;;
24521;SDS011;12680;57.804;12.190;2023-09-19T15:31:07;8.30;;;1.50;;
24521;SDS011;12680;57.804;12.190;2023-09-19T15:33:36;5.50;;;1.20;;
24521;SDS011;12680;57.804;12.190;2023-09-19T15:36:10;5.65;;;1.33;;
24521;SDS011;12680;57.804;12.190;2023-09-19T15:38:55;7.00;;;1.30;;
24521;SDS011;12680;57.804;12.190;2023-09-19T15:41:38;4.53;;;1.27;;
24521;SDS011;12680;57.804;12.190;2023-09-19T15:44:11;6.10;;;1.13;;
24521;SDS011;12680;57.804;12.190;2023-09-19T15:46:40;5.30;;;1.45;;
24521;SDS011;12680;57.804;12.190;2023-09-19T15:49:07;11.43;;;1.83;;
24521;SDS011;12680;57.804;12.190;2023-09-19T15:51:35;6.30;;;1.75;;
24521;SDS011;12680;57.804;12.190;2023-09-19T15:54:06;5.03;;;1.38;;
24521;SDS011;12680;57.804;12.190;2023-09-19T15:56:35;5.07;;;1.50;;
24521;SDS011;12680;57.804;12.190;2023-09-19T15:59:02;4.85;;;1.38;;
24521;SDS011;12680;57.804;12.190;2023-09-19T16:01:30;5.53;;;1.23;;